sensor_id;sensor_type;location;lat;lon;timestamp;P1;durP1;ratioP1;P2;durP2;ratioP2
10096;SDS011;5087;42.662;23.466;2022-07-25T00:01:54;15.37;;;14.27;;
10096;SDS011;5087;42.662;23.466;2022-07-25T00:04:21;15.07;;;13.97;;
10096;SDS011;5087;42.662;23.466;2022-07-25T00:06:48;15.73;;;14.63;;
10096;SDS011;5087;42.662;23.466;2022-07-25T00:09:15;16.07;;;14.80;;
10096;SDS011;5087;42.662;23.466;2022-07-25T00:11:42;16.13;;;14.77;;
10096;SDS011;5087;42.662;23.466;2022-07-25T00:14:10;15.53;;;14.33;;
10096;SDS011;5087;42.662;23.466;2022-07-25T00:16:37;15.50;;;14.27;;
10096;SDS011;5087;42.662;23.466;2022-07-25T00:19:05;16.20;;;14.97;;
10096;SDS011;5087;42.662;23.466;2022-07-25T00:21:33;16.27;;;15.10;;
10096;SDS011;5087;42.662;23.466;2022-07-25T00:24:00;16.47;;;15.07;;
10096;SDS011;5087;42.662;23.466;2022-07-25T00:26:27;16.40;;;15.10;;
10096;SDS011;5087;42.662;23.466;2022-07-25T00:28:54;16.70;;;15.30;;
10096;SDS011;5087;42.662;23.466;2022-07-25T00:31:21;17.00;;;15.57;;
10096;SDS011;5087;42.662;23.466;2022-07-25T00:33:48;17.00;;;15.47;;
10096;SDS011;5087;42.662;23.466;2022-07-25T00:36:17;16.23;;;14.87;;
10096;SDS011;5087;42.662;23.466;2022-07-25T00:38:44;17.43;;;16.03;;
10096;SDS011;5087;42.662;23.466;2022-07-25T00:41:12;17.80;;;16.20;;
10096;SDS011;5087;42.662;23.466;2022-07-25T00:43:41;17.60;;;15.90;;
10096;SDS011;5087;42.662;23.466;2022-07-25T00:46:10;16.93;;;15.27;;
10096;SDS011;5087;42.662;23.466;2022-07-25T00:48:38;17.97;;;16.17;;
10096;SDS011;5087;42.662;23.466;2022-07-25T00:51:05;17.97;;;16.37;;
10096;SDS011;5087;42.662;23.466;2022-07-25T00:53:34;17.37;;;15.87;;
10096;SDS011;5087;42.662;23.466;2022-07-25T00:56:04;17.60;;;15.93;;
10096;SDS011;5087;42.662;23.466;2022-07-25T00:58:32;17.93;;;16.33;;
10096;SDS011;5087;42.662;23.466;2022-07-25T01:00:59;17.03;;;15.53;;
10096;SDS011;5087;42.662;23.466;2022-07-25T01:03:27;16.13;;;14.83;;
10096;SDS011;5087;42.662;23.466;2022-07-25T01:05:55;17.33;;;15.83;;
10096;SDS011;5087;42.662;23.466;2022-07-25T01:08:22;16.83;;;15.33;;
10096;SDS011;5087;42.662;23.466;2022-07-25T01:10:51;17.23;;;15.50;;
10096;SDS011;5087;42.662;23.466;2022-07-25T01:13:18;16.77;;;15.23;;
10096;SDS011;5087;42.662;23.466;2022-07-25T01:15:45;16.17;;;14.77;;
10096;SDS011;5087;42.662;23.466;2022-07-25T01:18:12;15.70;;;14.37;;
10096;SDS011;5087;42.662;23.466;2022-07-25T01:20:41;16.70;;;15.40;;
10096;SDS011;5087;42.662;23.466;2022-07-25T01:23:08;15.67;;;14.37;;
10096;SDS011;5087;42.662;23.466;2022-07-25T01:25:35;16.43;;;15.13;;
10096;SDS011;5087;42.662;23.466;2022-07-25T01:28:02;15.80;;;14.40;;
10096;SDS011;5087;42.662;23.466;2022-07-25T01:30:30;16.93;;;15.40;;
10096;SDS011;5087;42.662;23.466;2022-07-25T01:32:57;15.73;;;14.33;;
10096;SDS011;5087;42.662;23.466;2022-07-25T01:35:24;17.20;;;15.53;;
10096;SDS011;5087;42.662;23.466;2022-07-25T01:37:53;16.07;;;14.67;;
10096;SDS011;5087;42.662;23.466;2022-07-25T01:40:20;16.97;;;15.47;;
10096;SDS011;5087;42.662;23.466;2022-07-25T01:42:47;16.10;;;14.60;;
10096;SDS011;5087;42.662;23.466;2022-07-25T01:45:15;17.10;;;15.60;;
10096;SDS011;5087;42.662;23.466;2022-07-25T01:47:42;16.73;;;15.23;;
10096;SDS011;5087;42.662;23.466;2022-07-25T01:50:09;16.40;;;15.10;;
10096;SDS011;5087;42.662;23.466;2022-07-25T01:52:36;16.43;;;15.13;;
10096;SDS011;5087;42.662;23.466;2022-07-25T01:55:06;16.70;;;15.33;;
10096;SDS011;5087;42.662;23.466;2022-07-25T01:57:34;16.40;;;15.00;;
10096;SDS011;5087;42.662;23.466;2022-07-25T02:00:02;16.43;;;15.13;;
10096;SDS011;5087;42.662;23.466;2022-07-25T02:02:37;16.70;;;15.33;;
10096;SDS011;5087;42.662;23.466;2022-07-25T02:05:04;17.07;;;15.53;;
10096;SDS011;5087;42.662;23.466;2022-07-25T02:07:32;17.27;;;15.67;;
10096;SDS011;5087;42.662;23.466;2022-07-25T02:10:00;17.40;;;16.00;;
10096;SDS011;5087;42.662;23.466;2022-07-25T02:12:29;15.70;;;14.40;;
10096;SDS011;5087;42.662;23.466;2022-07-25T02:14:56;15.30;;;13.97;;
10096;SDS011;5087;42.662;23.466;2022-07-25T02:17:23;16.80;;;15.10;;
10096;SDS011;5087;42.662;23.466;2022-07-25T02:19:50;16.37;;;15.07;;
10096;SDS011;5087;42.662;23.466;2022-07-25T02:22:17;15.87;;;14.57;;
10096;SDS011;5087;42.662;23.466;2022-07-25T02:24:45;17.30;;;15.80;;
10096;SDS011;5087;42.662;23.466;2022-07-25T02:27:12;16.23;;;14.83;;
10096;SDS011;5087;42.662;23.466;2022-07-25T02:29:41;15.67;;;14.47;;
10096;SDS011;5087;42.662;23.466;2022-07-25T02:32:08;16.33;;;14.97;;
10096;SDS011;5087;42.662;23.466;2022-07-25T02:34:35;15.20;;;13.80;;
10096;SDS011;5087;42.662;23.466;2022-07-25T02:37:02;16.07;;;14.67;;
10096;SDS011;5087;42.662;23.466;2022-07-25T02:39:29;15.40;;;14.03;;
10096;SDS011;5087;42.662;23.466;2022-07-25T02:41:56;16.20;;;14.70;;
10096;SDS011;5087;42.662;23.466;2022-07-25T02:44:24;16.30;;;14.67;;
10096;SDS011;5087;42.662;23.466;2022-07-25T02:46:52;16.87;;;14.27;;
10096;SDS011;5087;42.662;23.466;2022-07-25T02:49:19;15.97;;;14.47;;
10096;SDS011;5087;42.662;23.466;2022-07-25T02:51:47;15.70;;;14.13;;
10096;SDS011;5087;42.662;23.466;2022-07-25T02:54:14;17.60;;;15.90;;
10096;SDS011;5087;42.662;23.466;2022-07-25T02:56:41;16.60;;;15.10;;
10096;SDS011;5087;42.662;23.466;2022-07-25T02:59:08;15.50;;;14.10;;
10096;SDS011;5087;42.662;23.466;2022-07-25T03:01:35;16.10;;;14.60;;
10096;SDS011;5087;42.662;23.466;2022-07-25T03:04:04;16.30;;;14.67;;
10096;SDS011;5087;42.662;23.466;2022-07-25T03:06:31;16.47;;;15.00;;
10096;SDS011;5087;42.662;23.466;2022-07-25T03:08:58;15.97;;;14.47;;
10096;SDS011;5087;42.662;23.466;2022-07-25T03:11:26;16.17;;;14.60;;
10096;SDS011;5087;42.662;23.466;2022-07-25T03:13:53;15.33;;;13.80;;
10096;SDS011;5087;42.662;23.466;2022-07-25T03:16:20;16.37;;;14.87;;
10096;SDS011;5087;42.662;23.466;2022-07-25T03:18:47;15.53;;;14.13;;
10096;SDS011;5087;42.662;23.466;2022-07-25T03:21:16;15.73;;;14.27;;
10096;SDS011;5087;42.662;23.466;2022-07-25T03:23:43;17.90;;;15.70;;
10096;SDS011;5087;42.662;23.466;2022-07-25T03:26:10;17.37;;;15.57;;
10096;SDS011;5087;42.662;23.466;2022-07-25T03:28:38;16.30;;;14.77;;
10096;SDS011;5087;42.662;23.466;2022-07-25T03:31:07;17.87;;;14.93;;
10096;SDS011;5087;42.662;23.466;2022-07-25T03:33:34;16.20;;;14.67;;
10096;SDS011;5087;42.662;23.466;2022-07-25T03:36:03;16.53;;;14.97;;
10096;SDS011;5087;42.662;23.466;2022-07-25T03:38:32;17.87;;;15.97;;
10096;SDS011;5087;42.662;23.466;2022-07-25T03:40:59;16.13;;;14.53;;
10096;SDS011;5087;42.662;23.466;2022-07-25T03:43:26;17.53;;;15.77;;
10096;SDS011;5087;42.662;23.466;2022-07-25T03:45:54;16.27;;;14.87;;
10096;SDS011;5087;42.662;23.466;2022-07-25T03:48:21;16.93;;;14.73;;
10096;SDS011;5087;42.662;23.466;2022-07-25T03:50:48;16.13;;;14.67;;
10096;SDS011;5087;42.662;23.466;2022-07-25T03:53:15;17.30;;;15.60;;
10096;SDS011;5087;42.662;23.466;2022-07-25T03:55:44;17.70;;;16.07;;
10096;SDS011;5087;42.662;23.466;2022-07-25T03:58:11;17.50;;;15.27;;
10096;SDS011;5087;42.662;23.466;2022-07-25T04:00:38;19.87;;;16.67;;
10096;SDS011;5087;42.662;23.466;2022-07-25T04:03:05;18.50;;;16.57;;
10096;SDS011;5087;42.662;23.466;2022-07-25T04:05:32;17.87;;;16.13;;
10096;SDS011;5087;42.662;23.466;2022-07-25T04:07:59;18.90;;;16.87;;
10096;SDS011;5087;42.662;23.466;2022-07-25T04:10:27;18.07;;;16.27;;
10096;SDS011;5087;42.662;23.466;2022-07-25T04:12:55;19.50;;;16.67;;
10096;SDS011;5087;42.662;23.466;2022-07-25T04:15:23;23.80;;;17.10;;
10096;SDS011;5087;42.662;23.466;2022-07-25T04:17:50;30.50;;;17.77;;
10096;SDS011;5087;42.662;23.466;2022-07-25T04:20:17;22.77;;;17.07;;
10096;SDS011;5087;42.662;23.466;2022-07-25T04:22:44;18.53;;;16.63;;
10096;SDS011;5087;42.662;23.466;2022-07-25T04:25:11;16.93;;;15.33;;
10096;SDS011;5087;42.662;23.466;2022-07-25T04:27:38;21.47;;;15.80;;
10096;SDS011;5087;42.662;23.466;2022-07-25T04:30:07;19.50;;;17.57;;
10096;SDS011;5087;42.662;23.466;2022-07-25T04:32:35;18.37;;;16.33;;
10096;SDS011;5087;42.662;23.466;2022-07-25T04:35:03;19.07;;;17.17;;
10096;SDS011;5087;42.662;23.466;2022-07-25T04:37:31;18.47;;;16.50;;
10096;SDS011;5087;42.662;23.466;2022-07-25T04:40:00;20.63;;;17.23;;
10096;SDS011;5087;42.662;23.466;2022-07-25T04:42:27;17.67;;;16.13;;
10096;SDS011;5087;42.662;23.466;2022-07-25T04:44:54;17.60;;;16.00;;
10096;SDS011;5087;42.662;23.466;2022-07-25T04:47:23;17.07;;;15.37;;
10096;SDS011;5087;42.662;23.466;2022-07-25T04:49:50;20.53;;;16.17;;
10096;SDS011;5087;42.662;23.466;2022-07-25T04:52:18;15.37;;;13.73;;
10096;SDS011;5087;42.662;23.466;2022-07-25T04:54:45;14.43;;;13.03;;
10096;SDS011;5087;42.662;23.466;2022-07-25T04:57:13;13.70;;;12.40;;
10096;SDS011;5087;42.662;23.466;2022-07-25T04:59:40;14.87;;;13.40;;
10096;SDS011;5087;42.662;23.466;2022-07-25T05:02:08;14.00;;;12.70;;
10096;SDS011;5087;42.662;23.466;2022-07-25T05:04:37;13.77;;;12.67;;
10096;SDS011;5087;42.662;23.466;2022-07-25T05:07:04;14.63;;;13.17;;
10096;SDS011;5087;42.662;23.466;2022-07-25T05:09:34;18.70;;;13.47;;
10096;SDS011;5087;42.662;23.466;2022-07-25T05:12:01;13.47;;;12.27;;
10096;SDS011;5087;42.662;23.466;2022-07-25T05:14:28;13.40;;;12.30;;
10096;SDS011;5087;42.662;23.466;2022-07-25T05:16:55;12.60;;;11.70;;
10096;SDS011;5087;42.662;23.466;2022-07-25T05:19:25;13.30;;;12.10;;
10096;SDS011;5087;42.662;23.466;2022-07-25T05:21:54;14.63;;;13.27;;
10096;SDS011;5087;42.662;23.466;2022-07-25T05:24:21;13.80;;;12.70;;
10096;SDS011;5087;42.662;23.466;2022-07-25T05:26:51;12.63;;;11.60;;
10096;SDS011;5087;42.662;23.466;2022-07-25T05:29:18;14.80;;;13.57;;
10096;SDS011;5087;42.662;23.466;2022-07-25T05:31:48;13.53;;;12.43;;
10096;SDS011;5087;42.662;23.466;2022-07-25T05:34:15;14.27;;;12.97;;
10096;SDS011;5087;42.662;23.466;2022-07-25T05:36:42;12.90;;;11.70;;
10096;SDS011;5087;42.662;23.466;2022-07-25T05:39:11;13.60;;;12.57;;
10096;SDS011;5087;42.662;23.466;2022-07-25T05:41:39;12.53;;;11.73;;
10096;SDS011;5087;42.662;23.466;2022-07-25T05:44:06;14.03;;;12.23;;
10096;SDS011;5087;42.662;23.466;2022-07-25T05:46:33;13.67;;;12.57;;
10096;SDS011;5087;42.662;23.466;2022-07-25T05:49:01;14.80;;;12.93;;
10096;SDS011;5087;42.662;23.466;2022-07-25T05:51:28;14.00;;;12.63;;
10096;SDS011;5087;42.662;23.466;2022-07-25T05:53:55;12.63;;;11.43;;
10096;SDS011;5087;42.662;23.466;2022-07-25T05:56:24;12.83;;;11.93;;
10096;SDS011;5087;42.662;23.466;2022-07-25T05:58:51;13.00;;;12.03;;
10096;SDS011;5087;42.662;23.466;2022-07-25T06:01:19;14.53;;;13.03;;
10096;SDS011;5087;42.662;23.466;2022-07-25T06:03:46;17.10;;;12.40;;
10096;SDS011;5087;42.662;23.466;2022-07-25T06:06:13;13.57;;;12.60;;
10096;SDS011;5087;42.662;23.466;2022-07-25T06:08:40;14.40;;;13.10;;
10096;SDS011;5087;42.662;23.466;2022-07-25T06:11:08;12.80;;;11.67;;
10096;SDS011;5087;42.662;23.466;2022-07-25T06:13:37;12.70;;;11.40;;
10096;SDS011;5087;42.662;23.466;2022-07-25T06:16:04;13.07;;;11.73;;
10096;SDS011;5087;42.662;23.466;2022-07-25T06:18:32;14.67;;;13.43;;
10096;SDS011;5087;42.662;23.466;2022-07-25T06:20:59;13.47;;;12.33;;
10096;SDS011;5087;42.662;23.466;2022-07-25T06:23:26;13.70;;;12.53;;
10096;SDS011;5087;42.662;23.466;2022-07-25T06:25:53;13.97;;;12.70;;
10096;SDS011;5087;42.662;23.466;2022-07-25T06:28:20;15.20;;;13.77;;
10096;SDS011;5087;42.662;23.466;2022-07-25T06:30:49;12.30;;;11.37;;
10096;SDS011;5087;42.662;23.466;2022-07-25T06:33:16;12.87;;;11.57;;
10096;SDS011;5087;42.662;23.466;2022-07-25T06:35:43;12.13;;;11.10;;
10096;SDS011;5087;42.662;23.466;2022-07-25T06:38:10;12.13;;;11.13;;
10096;SDS011;5087;42.662;23.466;2022-07-25T06:40:38;11.67;;;10.73;;
10096;SDS011;5087;42.662;23.466;2022-07-25T06:43:05;11.83;;;10.93;;
10096;SDS011;5087;42.662;23.466;2022-07-25T06:45:32;12.47;;;11.30;;
10096;SDS011;5087;42.662;23.466;2022-07-25T06:48:01;14.17;;;12.83;;
10096;SDS011;5087;42.662;23.466;2022-07-25T06:50:28;12.40;;;11.40;;
10096;SDS011;5087;42.662;23.466;2022-07-25T06:52:55;14.37;;;13.10;;
10096;SDS011;5087;42.662;23.466;2022-07-25T06:55:22;12.97;;;11.63;;
10096;SDS011;5087;42.662;23.466;2022-07-25T06:57:50;19.77;;;15.67;;
10096;SDS011;5087;42.662;23.466;2022-07-25T07:00:17;12.83;;;11.63;;
10096;SDS011;5087;42.662;23.466;2022-07-25T07:02:49;14.23;;;12.90;;
10096;SDS011;5087;42.662;23.466;2022-07-25T07:05:19;12.73;;;11.73;;
10096;SDS011;5087;42.662;23.466;2022-07-25T07:07:46;14.03;;;12.77;;
10096;SDS011;5087;42.662;23.466;2022-07-25T07:10:14;13.23;;;12.23;;
10096;SDS011;5087;42.662;23.466;2022-07-25T07:12:41;13.70;;;12.50;;
10096;SDS011;5087;42.662;23.466;2022-07-25T07:15:08;14.47;;;12.37;;
10096;SDS011;5087;42.662;23.466;2022-07-25T07:17:36;15.43;;;13.90;;
10096;SDS011;5087;42.662;23.466;2022-07-25T07:20:04;14.20;;;12.90;;
10096;SDS011;5087;42.662;23.466;2022-07-25T07:22:43;11.63;;;10.53;;
10096;SDS011;5087;42.662;23.466;2022-07-25T07:25:11;11.43;;;10.60;;
10096;SDS011;5087;42.662;23.466;2022-07-25T07:27:46;11.90;;;11.00;;
10096;SDS011;5087;42.662;23.466;2022-07-25T07:30:13;12.07;;;10.70;;
10096;SDS011;5087;42.662;23.466;2022-07-25T07:32:41;11.60;;;10.60;;
10096;SDS011;5087;42.662;23.466;2022-07-25T07:35:09;12.50;;;11.30;;
10096;SDS011;5087;42.662;23.466;2022-07-25T07:37:36;11.20;;;10.30;;
10096;SDS011;5087;42.662;23.466;2022-07-25T07:40:06;10.83;;;10.03;;
10096;SDS011;5087;42.662;23.466;2022-07-25T07:42:37;11.97;;;10.87;;
10096;SDS011;5087;42.662;23.466;2022-07-25T07:45:09;12.30;;;11.40;;
10096;SDS011;5087;42.662;23.466;2022-07-25T07:47:38;11.40;;;10.60;;
10096;SDS011;5087;42.662;23.466;2022-07-25T07:50:06;11.10;;;10.30;;
10096;SDS011;5087;42.662;23.466;2022-07-25T07:52:35;11.07;;;10.20;;
10096;SDS011;5087;42.662;23.466;2022-07-25T07:55:03;12.27;;;11.20;;
10096;SDS011;5087;42.662;23.466;2022-07-25T07:57:49;11.37;;;10.47;;
10096;SDS011;5087;42.662;23.466;2022-07-25T08:00:17;10.80;;;9.83;;
10096;SDS011;5087;42.662;23.466;2022-07-25T08:02:46;11.23;;;10.13;;
10096;SDS011;5087;42.662;23.466;2022-07-25T08:05:18;10.60;;;9.70;;
10096;SDS011;5087;42.662;23.466;2022-07-25T08:07:47;10.70;;;9.90;;
10096;SDS011;5087;42.662;23.466;2022-07-25T08:10:17;11.37;;;10.47;;
10096;SDS011;5087;42.662;23.466;2022-07-25T08:12:46;11.27;;;10.43;;
10096;SDS011;5087;42.662;23.466;2022-07-25T08:15:14;11.47;;;10.57;;
10096;SDS011;5087;42.662;23.466;2022-07-25T08:17:43;11.07;;;10.27;;
10096;SDS011;5087;42.662;23.466;2022-07-25T08:20:10;11.33;;;10.37;;
10096;SDS011;5087;42.662;23.466;2022-07-25T08:22:38;11.13;;;10.17;;
10096;SDS011;5087;42.662;23.466;2022-07-25T08:25:07;11.87;;;10.90;;
10096;SDS011;5087;42.662;23.466;2022-07-25T08:27:36;11.90;;;10.80;;
10096;SDS011;5087;42.662;23.466;2022-07-25T08:30:03;11.50;;;10.60;;
10096;SDS011;5087;42.662;23.466;2022-07-25T08:32:33;12.07;;;11.00;;
10096;SDS011;5087;42.662;23.466;2022-07-25T08:35:11;11.83;;;10.90;;
10096;SDS011;5087;42.662;23.466;2022-07-25T08:37:38;10.47;;;9.60;;
10096;SDS011;5087;42.662;23.466;2022-07-25T08:40:14;10.70;;;9.90;;
10096;SDS011;5087;42.662;23.466;2022-07-25T08:42:43;11.67;;;10.77;;
10096;SDS011;5087;42.662;23.466;2022-07-25T08:45:16;10.37;;;9.50;;
10096;SDS011;5087;42.662;23.466;2022-07-25T08:47:46;12.30;;;11.17;;
10096;SDS011;5087;42.662;23.466;2022-07-25T08:50:15;11.43;;;10.43;;
10096;SDS011;5087;42.662;23.466;2022-07-25T08:52:44;10.27;;;9.43;;
10096;SDS011;5087;42.662;23.466;2022-07-25T08:55:15;11.70;;;10.63;;
10096;SDS011;5087;42.662;23.466;2022-07-25T08:57:45;10.50;;;9.60;;
10096;SDS011;5087;42.662;23.466;2022-07-25T09:00:14;10.57;;;9.43;;
10096;SDS011;5087;42.662;23.466;2022-07-25T09:02:49;9.83;;;9.03;;
10096;SDS011;5087;42.662;23.466;2022-07-25T09:05:26;10.33;;;9.57;;
10096;SDS011;5087;42.662;23.466;2022-07-25T09:07:56;9.20;;;8.60;;
10096;SDS011;5087;42.662;23.466;2022-07-25T09:10:25;10.10;;;9.30;;
10096;SDS011;5087;42.662;23.466;2022-07-25T09:12:54;10.67;;;9.17;;
10096;SDS011;5087;42.662;23.466;2022-07-25T09:15:23;11.00;;;10.10;;
10096;SDS011;5087;42.662;23.466;2022-07-25T09:17:53;10.40;;;9.37;;
10096;SDS011;5087;42.662;23.466;2022-07-25T09:20:20;10.63;;;9.73;;
10096;SDS011;5087;42.662;23.466;2022-07-25T09:22:48;9.60;;;8.70;;
10096;SDS011;5087;42.662;23.466;2022-07-25T09:25:19;9.67;;;8.77;;
10096;SDS011;5087;42.662;23.466;2022-07-25T09:27:50;9.40;;;8.70;;
10096;SDS011;5087;42.662;23.466;2022-07-25T09:30:18;9.83;;;9.13;;
10096;SDS011;5087;42.662;23.466;2022-07-25T09:32:45;10.10;;;9.20;;
10096;SDS011;5087;42.662;23.466;2022-07-25T09:35:14;11.37;;;10.57;;
10096;SDS011;5087;42.662;23.466;2022-07-25T09:37:41;9.73;;;9.00;;
10096;SDS011;5087;42.662;23.466;2022-07-25T09:40:12;9.77;;;8.97;;
10096;SDS011;5087;42.662;23.466;2022-07-25T09:42:40;12.27;;;9.60;;
10096;SDS011;5087;42.662;23.466;2022-07-25T09:45:11;9.77;;;8.97;;
10096;SDS011;5087;42.662;23.466;2022-07-25T09:47:49;9.37;;;8.57;;
10096;SDS011;5087;42.662;23.466;2022-07-25T09:50:20;9.47;;;8.73;;
10096;SDS011;5087;42.662;23.466;2022-07-25T09:52:49;9.47;;;8.67;;
10096;SDS011;5087;42.662;23.466;2022-07-25T09:55:17;9.20;;;8.30;;
10096;SDS011;5087;42.662;23.466;2022-07-25T09:57:45;9.23;;;8.53;;
10096;SDS011;5087;42.662;23.466;2022-07-25T10:00:14;10.23;;;9.43;;
10096;SDS011;5087;42.662;23.466;2022-07-25T10:02:46;10.30;;;9.50;;
10096;SDS011;5087;42.662;23.466;2022-07-25T10:05:20;11.07;;;9.97;;
10096;SDS011;5087;42.662;23.466;2022-07-25T10:07:55;13.23;;;11.47;;
10096;SDS011;5087;42.662;23.466;2022-07-25T10:10:25;13.90;;;10.17;;
10096;SDS011;5087;42.662;23.466;2022-07-25T10:13:00;8.70;;;8.00;;
10096;SDS011;5087;42.662;23.466;2022-07-25T10:15:39;10.40;;;9.50;;
10096;SDS011;5087;42.662;23.466;2022-07-25T10:18:14;8.20;;;7.50;;
10096;SDS011;5087;42.662;23.466;2022-07-25T10:20:43;8.97;;;8.17;;
10096;SDS011;5087;42.662;23.466;2022-07-25T10:23:18;9.40;;;8.27;;
10096;SDS011;5087;42.662;23.466;2022-07-25T10:25:58;7.70;;;7.10;;
10096;SDS011;5087;42.662;23.466;2022-07-25T10:28:34;8.00;;;7.40;;
10096;SDS011;5087;42.662;23.466;2022-07-25T10:31:19;9.00;;;8.20;;
10096;SDS011;5087;42.662;23.466;2022-07-25T10:33:52;8.93;;;8.03;;
10096;SDS011;5087;42.662;23.466;2022-07-25T10:36:22;8.30;;;7.60;;
10096;SDS011;5087;42.662;23.466;2022-07-25T10:38:55;8.60;;;7.87;;
10096;SDS011;5087;42.662;23.466;2022-07-25T10:41:23;8.77;;;8.07;;
10096;SDS011;5087;42.662;23.466;2022-07-25T10:43:54;9.37;;;8.57;;
10096;SDS011;5087;42.662;23.466;2022-07-25T10:46:25;7.03;;;6.50;;
10096;SDS011;5087;42.662;23.466;2022-07-25T10:48:58;7.40;;;6.90;;
10096;SDS011;5087;42.662;23.466;2022-07-25T10:51:31;7.50;;;7.00;;
10096;SDS011;5087;42.662;23.466;2022-07-25T10:53:59;7.50;;;7.00;;
10096;SDS011;5087;42.662;23.466;2022-07-25T10:56:48;7.07;;;6.57;;
10096;SDS011;5087;42.662;23.466;2022-07-25T10:59:24;6.87;;;6.20;;
10096;SDS011;5087;42.662;23.466;2022-07-25T11:01:52;7.87;;;7.27;;
10096;SDS011;5087;42.662;23.466;2022-07-25T11:04:20;7.53;;;7.03;;
10096;SDS011;5087;42.662;23.466;2022-07-25T11:06:48;6.57;;;6.17;;
10096;SDS011;5087;42.662;23.466;2022-07-25T11:09:20;7.77;;;6.60;;
10096;SDS011;5087;42.662;23.466;2022-07-25T11:11:49;7.77;;;6.57;;
10096;SDS011;5087;42.662;23.466;2022-07-25T11:14:18;6.73;;;6.33;;
10096;SDS011;5087;42.662;23.466;2022-07-25T11:16:48;7.47;;;6.87;;
10096;SDS011;5087;42.662;23.466;2022-07-25T11:19:18;7.07;;;6.67;;
10096;SDS011;5087;42.662;23.466;2022-07-25T11:21:46;7.73;;;7.23;;
10096;SDS011;5087;42.662;23.466;2022-07-25T11:24:16;6.97;;;6.47;;
10096;SDS011;5087;42.662;23.466;2022-07-25T11:26:43;6.80;;;6.40;;
10096;SDS011;5087;42.662;23.466;2022-07-25T11:29:16;7.03;;;6.50;;
10096;SDS011;5087;42.662;23.466;2022-07-25T11:31:50;7.03;;;6.43;;
10096;SDS011;5087;42.662;23.466;2022-07-25T11:34:17;7.00;;;6.60;;
10096;SDS011;5087;42.662;23.466;2022-07-25T11:36:49;6.27;;;5.87;;
10096;SDS011;5087;42.662;23.466;2022-07-25T11:39:18;7.00;;;6.50;;
10096;SDS011;5087;42.662;23.466;2022-07-25T11:41:45;7.17;;;6.67;;
10096;SDS011;5087;42.662;23.466;2022-07-25T11:44:12;6.73;;;6.27;;
10096;SDS011;5087;42.662;23.466;2022-07-25T11:46:40;6.90;;;6.40;;
10096;SDS011;5087;42.662;23.466;2022-07-25T11:49:08;7.47;;;6.87;;
10096;SDS011;5087;42.662;23.466;2022-07-25T11:51:36;7.93;;;7.30;;
10096;SDS011;5087;42.662;23.466;2022-07-25T11:54:07;7.23;;;6.63;;
10096;SDS011;5087;42.662;23.466;2022-07-25T11:56:37;7.10;;;6.60;;
10096;SDS011;5087;42.662;23.466;2022-07-25T11:59:05;7.43;;;6.93;;
10096;SDS011;5087;42.662;23.466;2022-07-25T12:01:32;7.03;;;6.53;;
10096;SDS011;5087;42.662;23.466;2022-07-25T12:04:08;6.50;;;6.10;;
10096;SDS011;5087;42.662;23.466;2022-07-25T12:06:36;6.57;;;6.07;;
10096;SDS011;5087;42.662;23.466;2022-07-25T12:09:14;6.83;;;6.43;;
10096;SDS011;5087;42.662;23.466;2022-07-25T12:11:48;7.13;;;6.63;;
10096;SDS011;5087;42.662;23.466;2022-07-25T12:14:15;7.13;;;6.53;;
10096;SDS011;5087;42.662;23.466;2022-07-25T12:16:43;7.50;;;7.00;;
10096;SDS011;5087;42.662;23.466;2022-07-25T12:19:17;8.27;;;6.60;;
10096;SDS011;5087;42.662;23.466;2022-07-25T12:21:45;7.40;;;6.70;;
10096;SDS011;5087;42.662;23.466;2022-07-25T12:24:12;7.27;;;6.67;;
10096;SDS011;5087;42.662;23.466;2022-07-25T12:26:39;6.73;;;6.13;;
10096;SDS011;5087;42.662;23.466;2022-07-25T12:29:08;6.90;;;6.30;;
10096;SDS011;5087;42.662;23.466;2022-07-25T12:31:35;7.50;;;6.87;;
10096;SDS011;5087;42.662;23.466;2022-07-25T12:34:02;7.60;;;6.53;;
10096;SDS011;5087;42.662;23.466;2022-07-25T12:36:30;6.83;;;6.33;;
10096;SDS011;5087;42.662;23.466;2022-07-25T12:38:58;8.00;;;6.23;;
10096;SDS011;5087;42.662;23.466;2022-07-25T12:41:26;7.83;;;7.27;;
10096;SDS011;5087;42.662;23.466;2022-07-25T12:43:53;7.50;;;7.00;;
10096;SDS011;5087;42.662;23.466;2022-07-25T12:46:23;7.13;;;6.60;;
10096;SDS011;5087;42.662;23.466;2022-07-25T12:48:50;6.73;;;6.30;;
10096;SDS011;5087;42.662;23.466;2022-07-25T12:51:17;8.50;;;7.53;;
10096;SDS011;5087;42.662;23.466;2022-07-25T12:53:45;7.70;;;7.20;;
10096;SDS011;5087;42.662;23.466;2022-07-25T12:56:13;7.10;;;6.60;;
10096;SDS011;5087;42.662;23.466;2022-07-25T12:58:41;6.83;;;6.33;;
10096;SDS011;5087;42.662;23.466;2022-07-25T13:01:08;7.20;;;6.50;;
10096;SDS011;5087;42.662;23.466;2022-07-25T13:03:39;6.90;;;6.37;;
10096;SDS011;5087;42.662;23.466;2022-07-25T13:06:06;7.70;;;6.93;;
10096;SDS011;5087;42.662;23.466;2022-07-25T13:08:34;8.87;;;7.20;;
10096;SDS011;5087;42.662;23.466;2022-07-25T13:11:02;7.23;;;6.73;;
10096;SDS011;5087;42.662;23.466;2022-07-25T13:13:29;8.07;;;7.50;;
10096;SDS011;5087;42.662;23.466;2022-07-25T13:15:57;7.67;;;7.10;;
10096;SDS011;5087;42.662;23.466;2022-07-25T13:18:25;7.27;;;6.77;;
10096;SDS011;5087;42.662;23.466;2022-07-25T13:21:03;8.30;;;7.70;;
10096;SDS011;5087;42.662;23.466;2022-07-25T13:23:43;8.93;;;8.23;;
10096;SDS011;5087;42.662;23.466;2022-07-25T13:26:12;8.10;;;7.40;;
10096;SDS011;5087;42.662;23.466;2022-07-25T13:28:42;9.43;;;7.70;;
10096;SDS011;5087;42.662;23.466;2022-07-25T13:31:12;8.93;;;8.17;;
10096;SDS011;5087;42.662;23.466;2022-07-25T13:33:42;8.13;;;7.50;;
10096;SDS011;5087;42.662;23.466;2022-07-25T13:36:28;7.53;;;6.93;;
10096;SDS011;5087;42.662;23.466;2022-07-25T13:38:56;8.23;;;7.53;;
10096;SDS011;5087;42.662;23.466;2022-07-25T13:41:23;8.43;;;7.73;;
10096;SDS011;5087;42.662;23.466;2022-07-25T13:43:51;23.63;;;16.20;;
10096;SDS011;5087;42.662;23.466;2022-07-25T13:46:18;11.27;;;10.10;;
10096;SDS011;5087;42.662;23.466;2022-07-25T13:48:45;12.40;;;11.10;;
10096;SDS011;5087;42.662;23.466;2022-07-25T13:51:13;9.53;;;8.83;;
10096;SDS011;5087;42.662;23.466;2022-07-25T13:53:41;8.87;;;8.00;;
10096;SDS011;5087;42.662;23.466;2022-07-25T13:56:10;8.57;;;7.87;;
10096;SDS011;5087;42.662;23.466;2022-07-25T13:58:37;8.53;;;7.80;;
10096;SDS011;5087;42.662;23.466;2022-07-25T14:01:05;9.00;;;8.30;;
10096;SDS011;5087;42.662;23.466;2022-07-25T14:03:33;8.17;;;7.60;;
10096;SDS011;5087;42.662;23.466;2022-07-25T14:06:01;10.10;;;8.80;;
10096;SDS011;5087;42.662;23.466;2022-07-25T14:08:28;8.47;;;7.77;;
10096;SDS011;5087;42.662;23.466;2022-07-25T14:10:57;9.47;;;8.50;;
10096;SDS011;5087;42.662;23.466;2022-07-25T14:13:24;8.70;;;7.90;;
10096;SDS011;5087;42.662;23.466;2022-07-25T14:15:51;9.47;;;8.73;;
10096;SDS011;5087;42.662;23.466;2022-07-25T14:18:20;8.00;;;7.47;;
10096;SDS011;5087;42.662;23.466;2022-07-25T14:20:47;8.77;;;7.90;;
10096;SDS011;5087;42.662;23.466;2022-07-25T14:23:14;8.37;;;7.67;;
10096;SDS011;5087;42.662;23.466;2022-07-25T14:25:41;9.23;;;8.23;;
10096;SDS011;5087;42.662;23.466;2022-07-25T14:28:10;8.97;;;8.17;;
10096;SDS011;5087;42.662;23.466;2022-07-25T14:30:37;8.83;;;8.00;;
10096;SDS011;5087;42.662;23.466;2022-07-25T14:33:04;9.10;;;8.20;;
10096;SDS011;5087;42.662;23.466;2022-07-25T14:35:31;8.87;;;8.00;;
10096;SDS011;5087;42.662;23.466;2022-07-25T14:37:59;8.37;;;7.80;;
10096;SDS011;5087;42.662;23.466;2022-07-25T14:40:27;10.27;;;8.23;;